Time;durP1;ratioP1;P1;durP2;ratioP2;P2;SDS_P1;SDS_P2;PMS_P1;PMS_P2;Temp;Humidity;BMP_temperature;BMP_pressure;BME280_temperature;BME280_humidity;BME280_pressure;Samples;Min_cycle;Max_cycle;Signal;HPM_P1;HPM_P2
2021/08/20 00:01:56;;;;;;;3.67;2.13;;;;;;;-140.79;100.00;63287.88;4950587;28;20031;-74
2021/08/20 00:04:21;;;;;;;4.82;2.20;;;;;;;-140.79;100.00;63287.88;4944447;29;20050;-74
2021/08/20 00:06:47;;;;;;;5.57;2.22;;;;;;;-140.79;100.00;63287.88;4946787;29;20027;-74
2021/08/20 00:09:12;;;;;;;4.05;2.30;;;;;;;-140.79;100.00;63287.88;4962814;28;20274;-75
2021/08/20 00:11:38;;;;;;;4.97;2.10;;;;;;;-140.79;100.00;63287.88;4961918;28;20666;-75
2021/08/20 00:14:04;;;;;;;6.20;2.20;;;;;;;-140.79;100.00;63287.88;4967937;28;20031;-74
2021/08/20 00:16:30;;;;;;;4.40;2.50;;;;;;;-140.79;100.00;63287.88;4950833;28;20026;-74
2021/08/20 00:18:55;;;;;;;4.90;2.08;;;;;;;-140.79;100.00;63287.88;4968443;28;20054;-75
2021/08/20 00:21:21;;;;;;;4.10;1.92;;;;;;;-140.79;100.00;63287.88;4938894;29;20066;-74
2021/08/20 00:23:46;;;;;;;6.20;1.98;;;;;;;-140.79;100.00;63287.88;4949724;29;20035;-74
2021/08/20 00:26:11;;;;;;;3.92;2.30;;;;;;;-140.79;100.00;63287.88;4948926;29;20038;-74
2021/08/20 00:28:37;;;;;;;4.05;2.00;;;;;;;-140.79;100.00;63287.88;4950264;29;20034;-74
2021/08/20 00:31:02;;;;;;;4.30;2.00;;;;;;;-140.79;100.00;63287.88;4955472;28;20023;-74
2021/08/20 00:33:28;;;;;;;5.38;2.05;;;;;;;-140.79;100.00;63287.88;4950045;29;20418;-75
2021/08/20 00:35:54;;;;;;;6.22;2.28;;;;;;;-140.79;100.00;63287.88;4948506;28;20413;-75
2021/08/20 00:38:20;;;;;;;3.95;2.17;;;;;;;-140.79;100.00;63287.88;4951480;28;20035;-75
2021/08/20 00:40:45;;;;;;;3.63;1.90;;;;;;;-140.79;100.00;63287.88;4948585;29;20702;-75
2021/08/20 00:43:10;;;;;;;8.32;2.03;;;;;;;-140.79;100.00;63287.88;4958951;28;20022;-74
2021/08/20 00:45:36;;;;;;;4.90;1.85;;;;;;;-140.79;100.00;63287.88;4968446;28;20027;-75
2021/08/20 00:48:11;;;;;;;2.90;1.75;;;;;;;-140.79;100.00;63287.88;4950461;28;20061;-75
2021/08/20 00:50:36;;;;;;;3.28;1.77;;;;;;;-140.79;100.00;63287.88;4960214;28;20027;-75
2021/08/20 00:53:02;;;;;;;2.90;1.80;;;;;;;-140.79;100.00;63287.88;4968830;28;20042;-75
2021/08/20 00:55:27;;;;;;;3.72;2.03;;;;;;;-140.79;100.00;63287.88;4934132;28;20134;-75
2021/08/20 00:57:53;;;;;;;3.85;2.00;;;;;;;-140.79;100.00;63287.88;4934437;28;20054;-74
2021/08/20 01:00:20;;;;;;;5.80;1.95;;;;;;;-140.79;100.00;63287.88;4961626;28;20413;-74
2021/08/20 01:02:46;;;;;;;3.80;2.00;;;;;;;-140.79;100.00;63287.88;4951153;28;20054;-74
2021/08/20 01:05:11;;;;;;;3.55;2.00;;;;;;;-140.79;100.00;63287.88;4967069;28;20031;-74
2021/08/20 01:07:38;;;;;;;4.00;2.17;;;;;;;-140.79;100.00;63287.88;4968161;28;20034;-74
2021/08/20 01:10:05;;;;;;;4.35;2.10;;;;;;;-140.79;100.00;63287.88;4949939;28;20031;-75
2021/08/20 01:12:30;;;;;;;5.40;2.17;;;;;;;-140.79;100.00;63287.88;4966613;28;20494;-74
2021/08/20 01:14:56;;;;;;;4.28;1.88;;;;;;;-140.79;100.00;63287.88;4968779;28;20031;-74
2021/08/20 01:17:21;;;;;;;4.97;2.00;;;;;;;-140.79;100.00;63287.88;4968008;28;20102;-76
2021/08/20 01:19:47;;;;;;;5.28;2.17;;;;;;;-140.79;100.00;63287.88;4966787;28;20421;-75
2021/08/20 01:22:13;;;;;;;3.80;1.92;;;;;;;-140.79;100.00;63287.88;4967885;28;20038;-75
2021/08/20 01:24:39;;;;;;;3.58;1.95;;;;;;;-140.79;100.00;63287.88;4950298;28;20041;-75
2021/08/20 01:27:04;;;;;;;3.20;1.80;;;;;;;-140.79;100.00;63287.88;4947986;28;20557;-75
2021/08/20 01:29:30;;;;;;;3.70;2.15;;;;;;;-140.79;100.00;63287.88;4966074;28;20029;-75
2021/08/20 01:31:55;;;;;;;3.58;1.60;;;;;;;-140.79;100.00;63287.88;4950392;28;20115;-74
2021/08/20 01:34:21;;;;;;;3.05;1.92;;;;;;;-140.79;100.00;63287.88;4967787;28;20027;-73
2021/08/20 01:36:46;;;;;;;3.47;1.77;;;;;;;-140.79;100.00;63287.88;4951045;28;20521;-74
2021/08/20 01:39:12;;;;;;;5.13;2.08;;;;;;;-140.79;100.00;63287.88;4948566;29;20031;-74
2021/08/20 01:41:37;;;;;;;6.25;2.33;;;;;;;-140.79;100.00;63287.88;4947019;28;20035;-74
2021/08/20 01:44:03;;;;;;;3.13;1.80;;;;;;;-140.79;100.00;63287.88;4947854;28;20031;-74
2021/08/20 01:46:29;;;;;;;4.68;1.80;;;;;;;-140.79;100.00;63287.88;4952568;28;20451;-74
2021/08/20 01:48:57;;;;;;;3.20;1.60;;;;;;;-140.79;100.00;63287.88;4946886;29;20042;-75
2021/08/20 01:51:29;;;;;;;3.28;1.88;;;;;;;-140.79;100.00;63287.88;4930422;29;20031;-74
2021/08/20 01:54:00;;;;;;;3.80;2.20;;;;;;;-140.79;100.00;63287.88;4947517;29;20463;-74
2021/08/20 01:56:30;;;;;;;3.65;1.90;;;;;;;-140.79;100.00;63287.88;4947890;29;20131;-74
2021/08/20 01:58:55;;;;;;;4.47;2.08;;;;;;;-140.79;100.00;63287.88;4963884;28;20035;-74
2021/08/20 02:01:21;;;;;;;3.40;1.90;;;;;;;-140.79;100.00;63287.88;4967621;28;20030;-74
2021/08/20 02:03:46;;;;;;;3.10;1.98;;;;;;;-140.79;100.00;63287.88;4957777;28;20521;-74
2021/08/20 02:06:12;;;;;;;4.13;1.73;;;;;;;-140.79;100.00;63287.88;4948370;29;20486;-73
2021/08/20 02:08:37;;;;;;;2.92;1.75;;;;;;;-140.79;100.00;63287.88;4955392;28;20085;-74
2021/08/20 02:11:03;;;;;;;4.80;2.10;;;;;;;-140.79;100.00;63287.88;4954455;28;20039;-75
2021/08/20 02:13:28;;;;;;;4.10;1.75;;;;;;;-140.79;100.00;63287.88;4956131;28;20490;-75
2021/08/20 02:15:54;;;;;;;4.10;1.80;;;;;;;-140.79;100.00;63287.88;4948053;29;20042;-75
2021/08/20 02:18:19;;;;;;;4.85;1.98;;;;;;;-140.79;100.00;63287.88;4948067;29;20034;-75
2021/08/20 02:20:45;;;;;;;4.47;2.10;;;;;;;-140.79;100.00;63287.88;4930755;29;20031;-75
2021/08/20 02:23:10;;;;;;;3.85;2.10;;;;;;;-140.79;100.00;63287.88;4946629;29;20015;-75
2021/08/20 02:25:36;;;;;;;3.83;1.75;;;;;;;-140.79;100.00;63287.88;4948267;29;20034;-74
2021/08/20 02:28:02;;;;;;;2.85;1.85;;;;;;;-140.79;100.00;63287.88;4947655;29;20459;-74
2021/08/20 02:30:28;;;;;;;3.90;2.28;;;;;;;-140.79;100.00;63287.88;4947632;29;20458;-74
2021/08/20 02:32:53;;;;;;;3.28;1.90;;;;;;;-140.79;100.00;63287.88;4947972;29;20026;-74
2021/08/20 02:35:19;;;;;;;5.80;2.08;;;;;;;-140.79;100.00;63287.88;4947079;28;20019;-75
2021/08/20 02:37:44;;;;;;;4.47;2.17;;;;;;;-140.79;100.00;63287.88;4947758;29;20098;-74
2021/08/20 02:40:10;;;;;;;4.05;2.03;;;;;;;-140.79;100.00;63287.88;4947547;29;20405;-75
2021/08/20 02:42:35;;;;;;;4.00;1.83;;;;;;;-140.79;100.00;63287.88;4947965;29;20460;-74
2021/08/20 02:45:00;;;;;;;3.92;2.03;;;;;;;-140.79;100.00;63287.88;4947622;29;20090;-74
2021/08/20 02:47:26;;;;;;;3.88;1.95;;;;;;;-140.79;100.00;63287.88;4947600;29;20037;-74
2021/08/20 02:49:51;;;;;;;4.05;2.10;;;;;;;-140.79;100.00;63287.88;4947638;29;20027;-74
2021/08/20 02:52:17;;;;;;;4.32;2.10;;;;;;;-140.79;100.00;63287.88;4947455;29;20027;-74
2021/08/20 02:54:42;;;;;;;3.47;2.03;;;;;;;-140.79;100.00;63287.88;4930344;29;20037;-74
2021/08/20 02:57:08;;;;;;;4.93;2.33;;;;;;;-140.79;100.00;63287.88;4947012;29;20122;-73
2021/08/20 02:59:33;;;;;;;4.60;2.08;;;;;;;-140.79;100.00;63287.88;4930277;29;20494;-74
2021/08/20 03:01:59;;;;;;;4.97;2.00;;;;;;;-140.79;100.00;63287.88;4947557;29;20034;-74
2021/08/20 03:04:25;;;;;;;3.65;2.17;;;;;;;-140.79;100.00;63287.88;4947106;29;20043;-74
2021/08/20 03:06:52;;;;;;;4.10;2.38;;;;;;;-140.79;100.00;63287.88;4947716;29;20023;-74
2021/08/20 03:09:20;;;;;;;4.05;1.88;;;;;;;-140.79;100.00;63287.88;4947329;29;20026;-74
2021/08/20 03:11:45;;;;;;;3.55;2.30;;;;;;;-140.79;100.00;63287.88;4947071;29;20031;-74
2021/08/20 03:14:11;;;;;;;6.10;2.00;;;;;;;-140.79;100.00;63287.88;4947390;29;20039;-74
2021/08/20 03:16:37;;;;;;;4.82;2.05;;;;;;;-140.79;100.00;63287.88;4947772;29;20035;-74
2021/08/20 03:19:02;;;;;;;3.65;2.25;;;;;;;-140.79;100.00;63287.88;4947184;29;20082;-74
2021/08/20 03:21:28;;;;;;;4.63;2.10;;;;;;;-140.79;100.00;63287.88;4947021;29;20046;-74
2021/08/20 03:23:54;;;;;;;4.15;2.25;;;;;;;-140.79;100.00;63287.88;4947082;29;20435;-74
2021/08/20 03:26:19;;;;;;;5.45;2.70;;;;;;;-140.79;100.00;63287.88;4929863;29;20023;-75
2021/08/20 03:28:44;;;;;;;5.40;2.53;;;;;;;-140.79;100.00;63287.88;4947286;29;20114;-75
2021/08/20 03:31:10;;;;;;;5.40;2.83;;;;;;;-140.79;100.00;63287.88;4929132;29;20478;-75
2021/08/20 03:33:35;;;;;;;3.70;2.35;;;;;;;-140.79;100.00;63287.88;4952150;28;20035;-74
2021/08/20 03:36:01;;;;;;;4.68;2.60;;;;;;;-140.79;100.00;63287.88;4966864;28;20421;-75
2021/08/20 03:38:26;;;;;;;4.65;2.00;;;;;;;-140.79;100.00;63287.88;4963307;28;20497;-75
2021/08/20 03:40:52;;;;;;;4.85;2.50;;;;;;;-140.79;100.00;63287.88;4965778;28;20043;-75
2021/08/20 03:43:17;;;;;;;4.15;2.30;;;;;;;-140.79;100.00;63287.88;4965973;28;20035;-74
2021/08/20 03:45:43;;;;;;;4.50;2.47;;;;;;;-140.79;100.00;63287.88;4963241;28;20039;-75
2021/08/20 03:48:08;;;;;;;5.75;2.50;;;;;;;-140.79;100.00;63287.88;4949352;28;20498;-74
2021/08/20 03:50:33;;;;;;;6.03;2.80;;;;;;;-140.79;100.00;63287.88;4950200;29;20050;-74
2021/08/20 03:52:59;;;;;;;4.18;2.53;;;;;;;-140.79;100.00;63287.88;4949865;29;20023;-74
2021/08/20 03:55:24;;;;;;;4.25;2.80;;;;;;;-140.79;100.00;63287.88;4950885;29;20023;-74
2021/08/20 03:57:53;;;;;;;6.80;2.97;;;;;;;-140.79;100.00;63287.88;4967172;28;20027;-74
2021/08/20 04:00:18;;;;;;;5.78;3.05;;;;;;;-140.79;100.00;63287.88;4968370;28;20022;-74
2021/08/20 04:02:44;;;;;;;6.00;2.80;;;;;;;-140.79;100.00;63287.88;4969280;28;20046;-74
2021/08/20 04:05:09;;;;;;;5.30;2.63;;;;;;;-140.79;100.00;63287.88;4968799;28;20646;-74
2021/08/20 04:07:35;;;;;;;4.65;2.53;;;;;;;-140.79;100.00;63287.88;4968748;28;20034;-74
2021/08/20 04:10:00;;;;;;;6.05;2.60;;;;;;;-140.79;100.00;63287.88;4969867;28;20038;-74
2021/08/20 04:12:26;;;;;;;5.43;2.78;;;;;;;-140.79;100.00;63287.88;4969101;28;20462;-75
2021/08/20 04:14:51;;;;;;;6.38;2.72;;;;;;;-140.79;100.00;63287.88;4951814;28;20587;-75
2021/08/20 04:17:17;;;;;;;5.40;2.80;;;;;;;-140.79;100.00;63287.88;4949988;29;20516;-75
2021/08/20 04:19:42;;;;;;;6.05;3.00;;;;;;;-140.79;100.00;63287.88;4959704;28;20092;-73
2021/08/20 04:22:08;;;;;;;6.72;2.40;;;;;;;-140.79;100.00;63287.88;4969495;28;20026;-74
2021/08/20 04:24:33;;;;;;;5.88;2.78;;;;;;;-140.79;100.00;63287.88;4946780;28;20022;-75
2021/08/20 04:26:58;;;;;;;6.40;3.15;;;;;;;-140.79;100.00;63287.88;4968716;28;20131;-75
2021/08/20 04:29:24;;;;;;;6.18;2.92;;;;;;;-140.79;100.00;63287.88;4935167;29;20604;-74
2021/08/20 04:31:49;;;;;;;5.32;2.97;;;;;;;-140.79;100.00;63287.88;4947270;28;20031;-74
2021/08/20 04:34:15;;;;;;;5.13;2.90;;;;;;;-140.79;100.00;63287.88;4953832;28;20054;-75
2021/08/20 04:36:40;;;;;;;5.72;2.80;;;;;;;-140.79;100.00;63287.88;4967800;28;20035;-74
2021/08/20 04:39:06;;;;;;;6.30;3.00;;;;;;;-140.79;100.00;63287.88;4948039;28;20097;-73
2021/08/20 04:41:31;;;;;;;4.82;2.75;;;;;;;-140.79;100.00;63287.88;4969262;28;20094;-74
2021/08/20 04:43:57;;;;;;;6.38;3.28;;;;;;;-140.79;100.00;63287.88;4968280;28;20026;-75
2021/08/20 04:46:23;;;;;;;5.50;2.97;;;;;;;-140.79;100.00;63287.88;4949250;28;20034;-76
2021/08/20 04:48:48;;;;;;;6.45;3.25;;;;;;;-140.79;100.00;63287.88;4952640;28;20026;-71
2021/08/20 04:51:14;;;;;;;7.53;3.13;;;;;;;-140.79;100.00;63287.88;4967675;28;20089;-69
2021/08/20 04:53:40;;;;;;;8.75;3.25;;;;;;;-140.79;100.00;63287.88;4950237;28;20031;-70
2021/08/20 04:56:05;;;;;;;9.15;3.13;;;;;;;-140.79;100.00;63287.88;4949408;29;20031;-70
2021/08/20 04:58:31;;;;;;;7.18;3.53;;;;;;;-140.79;100.00;63287.88;4948919;28;20110;-69
2021/08/20 05:00:57;;;;;;;8.23;3.35;;;;;;;-140.79;100.00;63287.88;4950079;29;20042;-69
2021/08/20 05:03:22;;;;;;;6.68;3.20;;;;;;;-140.79;100.00;63287.88;4931414;29;20087;-69
2021/08/20 05:05:47;;;;;;;9.68;3.70;;;;;;;-140.79;100.00;63287.88;4948830;29;20026;-70
2021/08/20 05:08:13;;;;;;;7.60;4.93;;;;;;;-140.79;100.00;63287.88;4947453;29;20027;-69
2021/08/20 05:10:39;;;;;;;5.80;3.60;;;;;;;-140.79;100.00;63287.88;4947620;29;20023;-68
2021/08/20 05:13:05;;;;;;;6.65;3.90;;;;;;;-140.79;100.00;63287.88;4948974;29;20094;-68
2021/08/20 05:15:30;;;;;;;5.20;3.42;;;;;;;-140.79;100.00;63287.88;4947946;28;20043;-69
2021/08/20 05:17:57;;;;;;;5.38;3.22;;;;;;;-140.79;100.00;63287.88;4948464;29;20039;-68
2021/08/20 05:20:22;;;;;;;8.10;3.28;;;;;;;-140.79;100.00;63287.88;4949504;29;20019;-69
2021/08/20 05:22:50;;;;;;;6.78;3.60;;;;;;;-140.79;100.00;63287.88;4947457;29;20034;-69
2021/08/20 05:25:16;;;;;;;9.13;4.18;;;;;;;-140.79;100.00;63287.88;4948486;29;20042;-68
2021/08/20 05:27:41;;;;;;;8.50;3.65;;;;;;;-140.79;100.00;63287.88;4948774;29;20490;-69
2021/08/20 05:30:07;;;;;;;7.65;3.97;;;;;;;-140.79;100.00;63287.88;4949229;29;20028;-69
2021/08/20 05:32:33;;;;;;;6.85;3.45;;;;;;;-140.79;100.00;63287.88;4948901;29;20288;-68
2021/08/20 05:34:59;;;;;;;11.48;4.07;;;;;;;-140.79;100.00;63287.88;4948927;29;20027;-69
2021/08/20 05:37:24;;;;;;;8.20;3.53;;;;;;;-140.79;100.00;63287.88;4947956;29;20030;-69
2021/08/20 05:39:50;;;;;;;8.10;3.92;;;;;;;-140.79;100.00;63287.88;4931648;29;20139;-69
2021/08/20 05:42:15;;;;;;;9.23;4.03;;;;;;;-140.79;100.00;63287.88;4948350;29;20019;-69
2021/08/20 05:44:41;;;;;;;6.03;3.90;;;;;;;-140.79;100.00;63287.88;4947755;29;20033;-70
2021/08/20 05:47:06;;;;;;;9.63;3.92;;;;;;;-140.79;100.00;63287.88;4948544;29;20023;-68
2021/08/20 05:49:32;;;;;;;14.05;3.75;;;;;;;-140.79;100.00;63287.88;4948161;29;20418;-69
2021/08/20 05:51:57;;;;;;;5.90;3.80;;;;;;;-140.79;100.00;63287.88;4947731;29;20066;-68
2021/08/20 05:54:22;;;;;;;8.65;4.20;;;;;;;-140.79;100.00;63287.88;4947323;29;20569;-67
2021/08/20 05:56:48;;;;;;;7.72;3.90;;;;;;;-140.79;100.00;63287.88;4946995;29;20478;-72
2021/08/20 05:59:14;;;;;;;9.32;4.47;;;;;;;-140.79;100.00;63287.88;4948843;29;20027;-70
2021/08/20 06:01:39;;;;;;;8.82;3.90;;;;;;;-140.79;100.00;63287.88;4948368;29;20015;-71
2021/08/20 06:04:04;;;;;;;8.50;4.00;;;;;;;-140.79;100.00;63287.88;4947551;29;20051;-71
2021/08/20 06:06:30;;;;;;;8.13;4.93;;;;;;;-140.79;100.00;63287.88;4948160;29;20086;-71
2021/08/20 06:08:55;;;;;;;9.35;4.88;;;;;;;-140.79;100.00;63287.88;4941647;29;20087;-71
2021/08/20 06:11:21;;;;;;;12.05;4.47;;;;;;;-140.79;100.00;63287.88;4944773;28;20534;-71
2021/08/20 06:13:49;;;;;;;9.02;4.32;;;;;;;-140.79;100.00;63287.88;4941124;29;20407;-70
2021/08/20 06:16:17;;;;;;;10.77;4.15;;;;;;;-140.79;100.00;63287.88;4947713;29;20027;-71
2021/08/20 06:18:43;;;;;;;7.82;4.60;;;;;;;-140.79;100.00;63287.88;4945866;29;20042;-71
2021/08/20 06:21:08;;;;;;;8.07;4.18;;;;;;;-140.79;100.00;63287.88;4948990;29;20403;-71
2021/08/20 06:23:34;;;;;;;9.45;4.38;;;;;;;-140.79;100.00;63287.88;4946754;29;20027;-70
2021/08/20 06:25:59;;;;;;;8.70;4.18;;;;;;;-140.79;100.00;63287.88;4931223;29;20106;-71
2021/08/20 06:28:25;;;;;;;7.32;4.30;;;;;;;-140.79;100.00;63287.88;4946736;29;20050;-71
2021/08/20 06:30:51;;;;;;;7.50;4.15;;;;;;;-140.79;100.00;63287.88;4955068;29;20035;-71
2021/08/20 06:33:16;;;;;;;9.45;4.35;;;;;;;-140.79;100.00;63287.88;4985776;28;20035;-72
2021/08/20 06:35:42;;;;;;;8.38;4.45;;;;;;;-140.79;100.00;63287.88;4972641;29;20061;-71
2021/08/20 06:38:07;;;;;;;9.07;4.45;;;;;;;-140.79;100.00;63287.88;4936415;29;20023;-72
2021/08/20 06:40:33;;;;;;;7.53;3.70;;;;;;;-140.79;100.00;63287.88;4947078;29;20056;-70
2021/08/20 06:42:58;;;;;;;8.18;3.78;;;;;;;-140.79;100.00;63287.88;4951885;28;20054;-70
2021/08/20 06:45:24;;;;;;;8.82;3.85;;;;;;;-140.79;100.00;63287.88;4955020;28;20565;-71
2021/08/20 06:47:49;;;;;;;7.57;4.00;;;;;;;-140.79;100.00;63287.88;4947272;29;20026;-70
2021/08/20 06:50:15;;;;;;;7.80;3.97;;;;;;;-140.79;100.00;63287.88;4946915;29;20027;-71
2021/08/20 06:52:40;;;;;;;5.35;3.60;;;;;;;-140.79;100.00;63287.88;4947102;29;20498;-70
2021/08/20 06:55:06;;;;;;;6.13;3.65;;;;;;;-140.79;100.00;63287.88;4947030;29;20083;-71
2021/08/20 06:57:31;;;;;;;5.55;3.88;;;;;;;-140.79;100.00;63287.88;4946849;29;20026;-71
2021/08/20 07:00:07;;;;;;;5.55;3.30;;;;;;;-140.79;100.00;63287.88;4946960;29;20011;-71
2021/08/20 07:02:43;;;;;;;4.80;3.45;;;;;;;-140.79;100.00;63287.88;4946560;28;20094;-71
2021/08/20 07:05:09;;;;;;;6.60;3.30;;;;;;;-140.79;100.00;63287.88;4942448;29;20015;-70
2021/08/20 07:07:34;;;;;;;7.15;3.75;;;;;;;26.04;nan;95036.09;4947443;29;20105;-71
2021/08/20 07:10:00;;;;;;;9.18;3.40;;;;;;;25.97;nan;82906.19;4947397;29;20506;-71
2021/08/20 07:12:25;;;;;;;8.73;3.80;;;;;;;-140.79;100.00;63287.88;4946434;29;20494;-71
2021/08/20 07:14:51;;;;;;;5.03;3.47;;;;;;;-140.79;100.00;63287.88;4946598;29;20047;-71
2021/08/20 07:17:16;;;;;;;8.77;3.60;;;;;;;25.95;nan;95037.06;4896804;28;20051;-71
2021/08/20 07:19:42;;;;;;;5.68;3.53;;;;;;;25.97;nan;95045.50;4946471;29;20023;-71
2021/08/20 07:22:08;;;;;;;6.78;3.55;;;;;;;25.96;nan;95040.53;4946129;29;20035;-71
2021/08/20 07:24:34;;;;;;;7.50;3.35;;;;;;;25.94;nan;95034.88;4946610;29;20027;-71
2021/08/20 07:26:59;;;;;;;4.35;3.55;;;;;;;25.93;nan;95042.34;4946345;29;20106;-71
2021/08/20 07:29:25;;;;;;;6.72;3.42;;;;;;;25.97;nan;95034.53;4946951;29;20034;-71
2021/08/20 07:31:50;;;;;;;4.65;2.95;;;;;;;25.90;nan;95037.16;4946962;28;20019;-71
2021/08/20 07:34:16;;;;;;;4.32;3.25;;;;;;;25.90;nan;95039.91;4947137;28;20023;-71
2021/08/20 07:36:41;;;;;;;8.10;3.38;;;;;;;25.91;nan;95052.31;4946783;28;20707;-71
2021/08/20 07:39:06;;;;;;;5.38;3.58;;;;;;;25.91;nan;95042.13;4946723;28;20473;-71
2021/08/20 07:41:32;;;;;;;7.65;3.20;;;;;;;25.89;nan;95033.69;4946945;28;20023;-72
2021/08/20 07:43:57;;;;;;;6.03;3.28;;;;;;;25.91;nan;95036.63;4946666;28;20473;-72
2021/08/20 07:46:23;;;;;;;5.60;3.00;;;;;;;25.95;nan;95030.88;4947085;28;20034;-71
2021/08/20 07:48:48;;;;;;;6.40;3.53;;;;;;;25.92;nan;95038.13;4946805;28;20035;-71
2021/08/20 07:51:14;;;;;;;5.32;3.50;;;;;;;25.94;nan;95024.63;4946823;28;20426;-71
2021/08/20 07:53:39;;;;;;;6.28;3.67;;;;;;;26.00;nan;95025.28;4946493;28;20031;-71
2021/08/20 07:56:05;;;;;;;6.78;3.42;;;;;;;26.02;nan;95025.50;4949373;28;20030;-71
2021/08/20 07:58:30;;;;;;;5.20;3.40;;;;;;;26.05;nan;95024.47;4966369;28;20037;-71
2021/08/20 08:00:56;;;;;;;6.38;3.40;;;;;;;26.03;nan;95029.69;4948796;28;20042;-71
2021/08/20 08:03:21;;;;;;;9.25;3.60;;;;;;;26.04;nan;95022.25;4965538;28;20172;-71
2021/08/20 08:05:47;;;;;;;8.27;3.72;;;;;;;26.07;nan;95026.63;4946066;28;20403;-71
2021/08/20 08:08:12;;;;;;;4.97;2.75;;;;;;;26.09;nan;95030.34;4946457;29;20032;-71
2021/08/20 08:10:38;;;;;;;5.95;3.50;;;;;;;26.08;nan;95028.84;4945442;28;20575;-71
2021/08/20 08:13:03;;;;;;;4.43;3.08;;;;;;;26.10;nan;95037.28;4945072;29;20040;-72
2021/08/20 08:15:29;;;;;;;4.90;3.40;;;;;;;26.10;nan;95026.34;4945281;28;20064;-71
2021/08/20 08:17:55;;;;;;;7.53;3.45;;;;;;;26.17;nan;95031.16;4944667;29;20034;-71
2021/08/20 08:20:21;;;;;;;5.75;3.15;;;;;;;26.22;nan;95033.06;4964245;28;20031;-71
2021/08/20 08:22:46;;;;;;;6.05;3.67;;;;;;;26.19;nan;95034.13;4965387;28;20402;-70
2021/08/20 08:25:12;;;;;;;4.40;3.15;;;;;;;26.21;nan;95031.59;4965177;28;20030;-71
2021/08/20 08:28:04;;;;;;;5.25;3.30;;;;;;;26.26;nan;95017.06;4965711;28;20035;-71
2021/08/20 08:30:34;;;;;;;6.57;3.28;;;;;;;26.27;nan;95021.28;4962092;28;20054;-71
2021/08/20 08:33:03;;;;;;;5.65;3.40;;;;;;;26.30;nan;95025.72;4964547;28;20027;-71
2021/08/20 08:35:29;;;;;;;8.73;3.58;;;;;;;26.31;nan;95019.00;4950558;28;20038;-71
2021/08/20 08:38:07;;;;;;;7.00;3.45;;;;;;;26.32;nan;95023.19;4949221;29;20051;-71
2021/08/20 08:40:33;;;;;;;8.32;3.30;;;;;;;26.33;nan;95016.44;4947750;29;20050;-70
2021/08/20 08:42:58;;;;;;;4.47;3.13;;;;;;;26.35;nan;95024.88;4949399;29;20023;-70
2021/08/20 08:45:24;;;;;;;4.05;3.10;;;;;;;26.37;nan;95016.88;4965317;28;20088;-71
2021/08/20 08:47:54;;;;;;;4.90;3.63;;;;;;;26.35;nan;95014.66;4950904;28;20034;-71
2021/08/20 08:50:19;;;;;;;4.78;3.60;;;;;;;26.38;nan;95007.38;4961150;28;20437;-71
2021/08/20 08:52:45;;;;;;;5.43;3.58;;;;;;;26.38;nan;95018.31;4968840;28;20070;-72
2021/08/20 08:55:11;;;;;;;6.03;3.40;;;;;;;26.42;nan;95008.53;4967530;28;20031;-71
2021/08/20 08:57:36;;;;;;;5.07;3.25;;;;;;;26.41;nan;95011.78;4958448;28;20118;-70
2021/08/20 09:00:03;;;;;;;4.78;3.45;;;;;;;26.47;nan;95004.19;4947763;28;20027;-70
2021/08/20 09:02:30;;;;;;;6.30;3.47;;;;;;;26.47;nan;94999.47;4968820;28;20125;-70
2021/08/20 09:05:00;;;;;;;6.13;3.17;;;;;;;26.49;nan;95004.44;4964773;28;20047;-73
2021/08/20 09:07:26;;;;;;;6.10;3.65;;;;;;;26.52;nan;95000.63;4947756;28;20028;-71
2021/08/20 09:10:20;;;;;;;6.68;3.78;;;;;;;26.54;nan;95009.03;4962425;28;20134;-71
2021/08/20 09:12:59;;;;;;;6.40;3.58;;;;;;;26.58;nan;95009.47;4958513;28;20046;-71
2021/08/20 09:15:27;;;;;;;8.32;3.83;;;;;;;26.69;nan;95003.75;4948792;28;20035;-71
2021/08/20 09:17:54;;;;;;;5.13;3.08;;;;;;;26.75;nan;95001.63;4958261;28;20034;-72
2021/08/20 09:20:24;;;;;;;6.38;4.10;;;;;;;26.81;nan;94989.97;4968152;28;20031;-71
2021/08/20 09:22:50;;;;;;;5.75;3.30;;;;;;;26.90;nan;94997.78;4968256;28;20034;-72
2021/08/20 09:25:32;;;;;;;6.72;3.40;;;;;;;27.01;nan;94997.53;4960391;28;20031;-72
2021/08/20 09:28:20;;;;;;;6.15;3.78;;;;;;;27.13;nan;94993.28;4949020;28;20119;-71
2021/08/20 09:30:55;;;;;;;6.97;3.83;;;;;;;27.22;nan;95000.28;4948700;28;20041;-71
2021/08/20 09:33:23;;;;;;;6.50;3.78;;;;;;;27.31;nan;94987.59;4948951;28;20418;-72
2021/08/20 09:36:17;;;;;;;6.25;3.97;;;;;;;27.43;nan;94993.53;4962909;28;20030;-71
2021/08/20 09:38:45;;;;;;;5.50;3.85;;;;;;;27.51;nan;94988.88;4948156;29;20620;-71
2021/08/20 09:41:14;;;;;;;5.45;3.58;;;;;;;27.54;nan;94976.81;4896201;29;20519;-72
2021/08/20 09:43:41;;;;;;;6.15;3.67;;;;;;;27.64;nan;94980.53;4942264;28;20019;-71
2021/08/20 09:46:14;;;;;;;5.78;3.85;;;;;;;27.75;nan;94981.00;4948204;28;20034;-72
2021/08/20 09:48:39;;;;;;;7.18;3.17;;;;;;;27.89;nan;94972.13;4945411;28;20023;-70
2021/08/20 09:51:05;;;;;;;5.30;3.40;;;;;;;27.95;nan;94967.22;4946230;28;20122;-70
2021/08/20 09:53:30;;;;;;;6.35;4.20;;;;;;;28.05;nan;94981.91;4942630;29;20024;-69
2021/08/20 09:55:56;;;;;;;5.40;3.60;;;;;;;28.21;nan;94978.00;4946841;28;20031;-70
2021/08/20 09:58:21;;;;;;;7.35;3.85;;;;;;;28.29;nan;94973.28;4941147;28;20034;-70
2021/08/20 10:00:47;;;;;;;5.00;3.75;;;;;;;28.38;nan;94970.03;4947290;28;20031;-70
2021/08/20 10:03:13;;;;;;;5.72;3.83;;;;;;;-140.79;100.00;63287.88;4945635;29;20043;-70
2021/08/20 10:05:38;;;;;;;6.50;3.78;;;;;;;-140.79;100.00;63287.88;4930700;29;20031;-67
2021/08/20 10:08:05;;;;;;;5.43;3.90;;;;;;;28.58;nan;94971.94;4928842;28;20028;-69
2021/08/20 10:10:30;;;;;;;5.78;3.88;;;;;;;28.64;nan;94976.00;4966299;28;20034;-70
2021/08/20 10:12:56;;;;;;;4.80;3.30;;;;;;;28.69;nan;94983.38;4967548;28;20074;-71
2021/08/20 10:15:23;;;;;;;6.57;3.60;;;;;;;28.74;nan;94969.47;4965933;28;20031;-70
2021/08/20 10:17:49;;;;;;;8.55;3.83;;;;;;;28.77;nan;94967.63;4964516;28;20169;-69
2021/08/20 10:20:14;;;;;;;7.00;4.28;;;;;;;28.75;nan;94954.41;4963526;28;20022;-70
2021/08/20 10:22:39;;;;;;;7.28;4.30;;;;;;;28.70;nan;94962.84;4958418;28;20066;-70
2021/08/20 10:25:07;;;;;;;5.45;3.80;;;;;;;28.74;nan;94963.97;4928424;28;20094;-71
2021/08/20 10:27:33;;;;;;;6.55;4.60;;;;;;;28.86;nan;94958.84;4967545;28;20122;-72
2021/08/20 10:29:59;;;;;;;6.20;4.25;;;;;;;28.96;nan;94957.75;4947510;28;20490;-69
2021/08/20 10:32:24;;;;;;;6.97;3.90;;;;;;;28.99;nan;94945.66;4949852;28;20015;-72
2021/08/20 10:34:50;;;;;;;6.20;3.80;;;;;;;29.06;nan;94950.47;4949633;28;20034;-72
2021/08/20 10:37:17;;;;;;;7.25;4.28;;;;;;;29.08;nan;94942.38;4946348;28;20106;-72
2021/08/20 10:39:46;;;;;;;7.15;3.95;;;;;;;29.09;nan;94930.09;4947702;28;20031;-72
2021/08/20 10:42:15;;;;;;;5.70;3.95;;;;;;;29.08;nan;94930.66;4943605;28;20038;-72
2021/08/20 10:44:45;;;;;;;5.75;4.30;;;;;;;29.07;nan;94935.41;4947676;28;20498;-72
2021/08/20 10:47:27;;;;;;;5.07;3.90;;;;;;;29.08;nan;94931.38;4957328;28;20082;-72
2021/08/20 10:50:05;;;;;;;6.40;4.05;;;;;;;29.05;nan;94926.97;4949324;28;20036;-71
2021/08/20 10:52:31;;;;;;;5.68;4.07;;;;;;;29.00;nan;94925.16;4946805;29;20027;-71
2021/08/20 10:54:57;;;;;;;7.40;4.78;;;;;;;28.99;nan;94917.44;4947022;29;20031;-69
2021/08/20 10:57:34;;;;;;;7.40;4.15;;;;;;;28.97;nan;94915.25;4946975;28;20516;-71
2021/08/20 11:00:00;;;;;;;5.30;4.00;;;;;;;28.95;nan;94917.81;4947205;28;20058;-72
2021/08/20 11:02:25;;;;;;;6.90;4.43;;;;;;;28.92;nan;94924.41;4947161;28;20038;-70
2021/08/20 11:05:02;;;;;;;7.40;3.85;;;;;;;28.87;nan;94922.56;4947496;28;20051;-71
2021/08/20 11:07:36;;;;;;;6.25;4.10;;;;;;;28.80;nan;94923.28;4947411;28;20027;-72
2021/08/20 11:10:24;;;;;;;6.47;4.25;;;;;;;28.76;nan;94928.41;4960855;28;20030;-72
2021/08/20 11:12:53;;;;;;;7.53;4.70;;;;;;;28.70;nan;94907.13;4957653;28;20043;-72
2021/08/20 11:15:21;;;;;;;5.55;4.40;;;;;;;28.62;nan;94906.34;4953020;28;20054;-72
2021/08/20 11:17:52;;;;;;;5.72;4.22;;;;;;;28.59;nan;94897.19;4966618;28;20030;-72
2021/08/20 11:20:22;;;;;;;6.32;4.85;;;;;;;28.61;nan;94899.38;4966555;28;20121;-72
2021/08/20 11:23:11;;;;;;;;;;;;;;;28.60;nan;94906.19;4967391;28;20529;-71